sensor_id;sensor_type;location;lat;lon;timestamp;P1;durP1;ratioP1;P2;durP2;ratioP2
21837;SDS011;11081;45.946;6.140;2023-05-07T00:01:44;3.00;;;2.10;;
21837;SDS011;11081;45.946;6.140;2023-05-07T00:04:12;3.67;;;2.00;;
21837;SDS011;11081;45.946;6.140;2023-05-07T00:06:40;6.80;;;2.08;;
21837;SDS011;11081;45.946;6.140;2023-05-07T00:09:08;3.85;;;2.40;;
21837;SDS011;11081;45.946;6.140;2023-05-07T00:11:37;4.57;;;2.03;;
21837;SDS011;11081;45.946;6.140;2023-05-07T00:14:06;5.72;;;2.42;;
21837;SDS011;11081;45.946;6.140;2023-05-07T00:16:34;5.32;;;2.13;;
21837;SDS011;11081;45.946;6.140;2023-05-07T00:19:02;4.93;;;2.03;;
21837;SDS011;11081;45.946;6.140;2023-05-07T00:21:30;4.85;;;2.05;;
21837;SDS011;11081;45.946;6.140;2023-05-07T00:23:58;4.18;;;1.98;;
21837;SDS011;11081;45.946;6.140;2023-05-07T00:26:26;7.70;;;2.35;;
21837;SDS011;11081;45.946;6.140;2023-05-07T00:28:54;4.72;;;2.15;;
21837;SDS011;11081;45.946;6.140;2023-05-07T00:31:24;4.40;;;2.28;;
21837;SDS011;11081;45.946;6.140;2023-05-07T00:33:52;6.93;;;2.70;;
21837;SDS011;11081;45.946;6.140;2023-05-07T00:36:20;4.95;;;2.63;;
21837;SDS011;11081;45.946;6.140;2023-05-07T00:38:47;9.95;;;2.67;;
21837;SDS011;11081;45.946;6.140;2023-05-07T00:41:15;6.55;;;2.17;;
21837;SDS011;11081;45.946;6.140;2023-05-07T00:43:44;7.80;;;2.75;;
21837;SDS011;11081;45.946;6.140;2023-05-07T00:46:12;6.53;;;2.30;;
21837;SDS011;11081;45.946;6.140;2023-05-07T00:48:42;5.70;;;2.60;;
21837;SDS011;11081;45.946;6.140;2023-05-07T00:51:10;9.68;;;2.30;;
21837;SDS011;11081;45.946;6.140;2023-05-07T00:53:38;5.95;;;2.20;;
21837;SDS011;11081;45.946;6.140;2023-05-07T00:56:07;5.93;;;2.53;;
21837;SDS011;11081;45.946;6.140;2023-05-07T00:58:35;5.97;;;2.38;;
21837;SDS011;11081;45.946;6.140;2023-05-07T01:01:03;5.18;;;2.60;;
21837;SDS011;11081;45.946;6.140;2023-05-07T01:03:31;4.65;;;2.35;;
21837;SDS011;11081;45.946;6.140;2023-05-07T01:06:01;7.20;;;2.05;;
21837;SDS011;11081;45.946;6.140;2023-05-07T01:08:31;2.88;;;2.25;;
21837;SDS011;11081;45.946;6.140;2023-05-07T01:11:01;6.22;;;2.33;;
21837;SDS011;11081;45.946;6.140;2023-05-07T01:13:30;4.35;;;2.50;;
21837;SDS011;11081;45.946;6.140;2023-05-07T01:15:58;6.70;;;2.20;;
21837;SDS011;11081;45.946;6.140;2023-05-07T01:18:26;6.30;;;2.00;;
21837;SDS011;11081;45.946;6.140;2023-05-07T01:20:57;4.68;;;2.53;;
21837;SDS011;11081;45.946;6.140;2023-05-07T01:23:28;3.80;;;2.15;;
21837;SDS011;11081;45.946;6.140;2023-05-07T01:25:57;6.75;;;2.38;;
21837;SDS011;11081;45.946;6.140;2023-05-07T01:28:26;4.93;;;2.22;;
21837;SDS011;11081;45.946;6.140;2023-05-07T01:30:59;9.50;;;2.10;;
21837;SDS011;11081;45.946;6.140;2023-05-07T01:33:31;6.80;;;2.30;;
21837;SDS011;11081;45.946;6.140;2023-05-07T01:36:02;3.50;;;1.92;;
21837;SDS011;11081;45.946;6.140;2023-05-07T01:38:34;4.38;;;2.53;;
21837;SDS011;11081;45.946;6.140;2023-05-07T01:41:03;4.10;;;2.28;;
21837;SDS011;11081;45.946;6.140;2023-05-07T01:43:32;3.92;;;2.05;;
21837;SDS011;11081;45.946;6.140;2023-05-07T01:46:01;6.38;;;2.20;;
21837;SDS011;11081;45.946;6.140;2023-05-07T01:48:30;4.57;;;2.00;;
21837;SDS011;11081;45.946;6.140;2023-05-07T01:50:59;4.47;;;2.20;;
21837;SDS011;11081;45.946;6.140;2023-05-07T01:53:27;6.32;;;2.35;;
21837;SDS011;11081;45.946;6.140;2023-05-07T01:55:57;2.83;;;2.10;;
21837;SDS011;11081;45.946;6.140;2023-05-07T01:58:25;3.92;;;2.40;;
21837;SDS011;11081;45.946;6.140;2023-05-07T02:00:53;4.80;;;2.47;;
21837;SDS011;11081;45.946;6.140;2023-05-07T02:03:21;5.47;;;2.30;;
21837;SDS011;11081;45.946;6.140;2023-05-07T02:05:58;4.28;;;2.22;;
21837;SDS011;11081;45.946;6.140;2023-05-07T02:08:35;4.30;;;2.85;;
21837;SDS011;11081;45.946;6.140;2023-05-07T02:11:05;5.10;;;2.40;;
21837;SDS011;11081;45.946;6.140;2023-05-07T02:13:34;4.38;;;2.65;;
21837;SDS011;11081;45.946;6.140;2023-05-07T02:16:04;6.53;;;2.60;;
21837;SDS011;11081;45.946;6.140;2023-05-07T02:18:33;6.15;;;2.58;;
21837;SDS011;11081;45.946;6.140;2023-05-07T02:21:02;13.52;;;2.72;;
21837;SDS011;11081;45.946;6.140;2023-05-07T02:23:30;9.80;;;2.60;;
21837;SDS011;11081;45.946;6.140;2023-05-07T02:25:58;4.90;;;2.60;;
21837;SDS011;11081;45.946;6.140;2023-05-07T02:28:27;4.82;;;2.55;;
21837;SDS011;11081;45.946;6.140;2023-05-07T02:31:03;4.15;;;2.45;;
21837;SDS011;11081;45.946;6.140;2023-05-07T02:33:32;4.50;;;2.65;;
21837;SDS011;11081;45.946;6.140;2023-05-07T02:36:06;8.55;;;3.13;;
21837;SDS011;11081;45.946;6.140;2023-05-07T02:38:40;5.50;;;2.72;;
21837;SDS011;11081;45.946;6.140;2023-05-07T02:41:08;7.25;;;3.00;;
21837;SDS011;11081;45.946;6.140;2023-05-07T02:43:37;7.72;;;2.80;;
21837;SDS011;11081;45.946;6.140;2023-05-07T02:46:06;11.63;;;3.67;;
21837;SDS011;11081;45.946;6.140;2023-05-07T02:48:39;14.88;;;3.42;;
21837;SDS011;11081;45.946;6.140;2023-05-07T02:51:07;9.57;;;3.30;;
21837;SDS011;11081;45.946;6.140;2023-05-07T02:53:38;8.07;;;3.40;;
21837;SDS011;11081;45.946;6.140;2023-05-07T02:56:06;9.45;;;3.30;;
21837;SDS011;11081;45.946;6.140;2023-05-07T02:58:34;7.55;;;3.22;;
21837;SDS011;11081;45.946;6.140;2023-05-07T03:01:05;5.93;;;3.35;;
21837;SDS011;11081;45.946;6.140;2023-05-07T03:03:51;6.22;;;3.20;;
21837;SDS011;11081;45.946;6.140;2023-05-07T03:06:19;10.55;;;2.92;;
21837;SDS011;11081;45.946;6.140;2023-05-07T03:08:47;5.38;;;2.92;;
21837;SDS011;11081;45.946;6.140;2023-05-07T03:11:15;6.35;;;2.70;;
21837;SDS011;11081;45.946;6.140;2023-05-07T03:13:43;4.35;;;2.60;;
21837;SDS011;11081;45.946;6.140;2023-05-07T03:16:13;4.95;;;3.03;;
21837;SDS011;11081;45.946;6.140;2023-05-07T03:18:42;4.13;;;2.47;;
21837;SDS011;11081;45.946;6.140;2023-05-07T03:21:11;6.82;;;2.92;;
21837;SDS011;11081;45.946;6.140;2023-05-07T03:23:39;5.88;;;2.90;;
21837;SDS011;11081;45.946;6.140;2023-05-07T03:26:07;4.28;;;2.90;;
21837;SDS011;11081;45.946;6.140;2023-05-07T03:28:35;4.55;;;2.47;;
21837;SDS011;11081;45.946;6.140;2023-05-07T03:31:08;11.05;;;2.90;;
21837;SDS011;11081;45.946;6.140;2023-05-07T03:33:38;6.28;;;2.90;;
21837;SDS011;11081;45.946;6.140;2023-05-07T03:36:17;4.43;;;2.80;;
21837;SDS011;11081;45.946;6.140;2023-05-07T03:38:45;8.00;;;2.70;;
21837;SDS011;11081;45.946;6.140;2023-05-07T03:41:17;4.70;;;2.80;;
21837;SDS011;11081;45.946;6.140;2023-05-07T03:43:45;6.05;;;2.78;;
21837;SDS011;11081;45.946;6.140;2023-05-07T03:46:14;7.78;;;2.67;;
21837;SDS011;11081;45.946;6.140;2023-05-07T03:48:43;5.22;;;2.78;;
21837;SDS011;11081;45.946;6.140;2023-05-07T03:51:13;6.45;;;3.08;;
21837;SDS011;11081;45.946;6.140;2023-05-07T03:53:41;8.35;;;2.42;;
21837;SDS011;11081;45.946;6.140;2023-05-07T03:56:09;5.85;;;2.53;;
21837;SDS011;11081;45.946;6.140;2023-05-07T03:58:39;5.00;;;2.95;;
21837;SDS011;11081;45.946;6.140;2023-05-07T04:01:09;6.15;;;2.45;;
21837;SDS011;11081;45.946;6.140;2023-05-07T04:03:37;5.95;;;2.53;;
21837;SDS011;11081;45.946;6.140;2023-05-07T04:06:07;3.90;;;2.47;;
21837;SDS011;11081;45.946;6.140;2023-05-07T04:08:35;3.45;;;2.00;;
21837;SDS011;11081;45.946;6.140;2023-05-07T04:11:05;4.38;;;2.25;;
21837;SDS011;11081;45.946;6.140;2023-05-07T04:13:35;6.45;;;2.58;;
21837;SDS011;11081;45.946;6.140;2023-05-07T04:16:05;5.65;;;2.70;;
21837;SDS011;11081;45.946;6.140;2023-05-07T04:18:35;5.82;;;2.30;;
21837;SDS011;11081;45.946;6.140;2023-05-07T04:21:04;6.55;;;2.35;;
21837;SDS011;11081;45.946;6.140;2023-05-07T04:23:36;5.63;;;2.60;;
21837;SDS011;11081;45.946;6.140;2023-05-07T04:26:08;6.18;;;2.35;;
21837;SDS011;11081;45.946;6.140;2023-05-07T04:28:42;3.58;;;1.98;;
21837;SDS011;11081;45.946;6.140;2023-05-07T04:31:11;5.30;;;2.60;;
21837;SDS011;11081;45.946;6.140;2023-05-07T04:33:40;4.20;;;2.30;;
21837;SDS011;11081;45.946;6.140;2023-05-07T04:36:11;5.55;;;2.20;;
21837;SDS011;11081;45.946;6.140;2023-05-07T04:38:49;6.10;;;2.47;;
21837;SDS011;11081;45.946;6.140;2023-05-07T04:41:18;4.25;;;2.15;;
21837;SDS011;11081;45.946;6.140;2023-05-07T04:43:47;9.52;;;2.40;;
21837;SDS011;11081;45.946;6.140;2023-05-07T04:46:17;5.97;;;2.05;;
21837;SDS011;11081;45.946;6.140;2023-05-07T04:48:46;5.65;;;2.70;;
21837;SDS011;11081;45.946;6.140;2023-05-07T04:51:15;3.28;;;2.42;;
21837;SDS011;11081;45.946;6.140;2023-05-07T04:53:43;5.47;;;2.00;;
21837;SDS011;11081;45.946;6.140;2023-05-07T04:56:12;3.10;;;2.00;;
21837;SDS011;11081;45.946;6.140;2023-05-07T04:58:42;3.97;;;1.95;;
21837;SDS011;11081;45.946;6.140;2023-05-07T05:01:11;4.53;;;2.50;;
21837;SDS011;11081;45.946;6.140;2023-05-07T05:03:40;5.97;;;2.00;;
21837;SDS011;11081;45.946;6.140;2023-05-07T05:06:08;4.65;;;2.22;;
21837;SDS011;11081;45.946;6.140;2023-05-07T05:08:36;4.22;;;2.25;;
21837;SDS011;11081;45.946;6.140;2023-05-07T05:11:04;5.38;;;1.63;;
21837;SDS011;11081;45.946;6.140;2023-05-07T05:13:35;3.00;;;2.03;;
21837;SDS011;11081;45.946;6.140;2023-05-07T05:16:10;4.57;;;1.92;;
21837;SDS011;11081;45.946;6.140;2023-05-07T05:18:39;3.50;;;1.90;;
21837;SDS011;11081;45.946;6.140;2023-05-07T05:21:09;3.95;;;2.22;;
21837;SDS011;11081;45.946;6.140;2023-05-07T05:23:38;4.15;;;1.80;;
21837;SDS011;11081;45.946;6.140;2023-05-07T05:26:07;4.05;;;2.03;;
21837;SDS011;11081;45.946;6.140;2023-05-07T05:28:36;4.22;;;2.25;;
21837;SDS011;11081;45.946;6.140;2023-05-07T05:31:05;4.75;;;2.30;;
21837;SDS011;11081;45.946;6.140;2023-05-07T05:33:35;5.65;;;1.90;;
21837;SDS011;11081;45.946;6.140;2023-05-07T05:36:04;4.72;;;1.80;;
21837;SDS011;11081;45.946;6.140;2023-05-07T05:38:34;3.30;;;1.83;;
21837;SDS011;11081;45.946;6.140;2023-05-07T05:41:03;4.55;;;2.20;;
21837;SDS011;11081;45.946;6.140;2023-05-07T05:43:31;5.95;;;2.30;;
21837;SDS011;11081;45.946;6.140;2023-05-07T05:46:00;5.60;;;2.42;;
21837;SDS011;11081;45.946;6.140;2023-05-07T05:48:29;4.15;;;2.35;;
21837;SDS011;11081;45.946;6.140;2023-05-07T05:50:59;4.43;;;2.55;;
21837;SDS011;11081;45.946;6.140;2023-05-07T05:53:27;3.30;;;2.08;;
21837;SDS011;11081;45.946;6.140;2023-05-07T05:55:56;3.85;;;2.47;;
21837;SDS011;11081;45.946;6.140;2023-05-07T05:58:24;3.55;;;2.10;;
21837;SDS011;11081;45.946;6.140;2023-05-07T06:00:57;4.82;;;2.55;;
21837;SDS011;11081;45.946;6.140;2023-05-07T06:03:28;6.03;;;2.38;;
21837;SDS011;11081;45.946;6.140;2023-05-07T06:06:00;5.32;;;2.20;;
21837;SDS011;11081;45.946;6.140;2023-05-07T06:08:28;5.20;;;2.47;;
21837;SDS011;11081;45.946;6.140;2023-05-07T06:10:58;4.70;;;2.60;;
21837;SDS011;11081;45.946;6.140;2023-05-07T06:13:27;5.25;;;2.63;;
21837;SDS011;11081;45.946;6.140;2023-05-07T06:15:56;5.90;;;2.30;;
21837;SDS011;11081;45.946;6.140;2023-05-07T06:18:24;3.38;;;2.40;;
21837;SDS011;11081;45.946;6.140;2023-05-07T06:20:54;3.20;;;2.40;;
21837;SDS011;11081;45.946;6.140;2023-05-07T06:23:26;6.28;;;2.50;;
21837;SDS011;11081;45.946;6.140;2023-05-07T06:25:54;4.85;;;2.53;;
21837;SDS011;11081;45.946;6.140;2023-05-07T06:28:27;9.73;;;2.25;;
21837;SDS011;11081;45.946;6.140;2023-05-07T06:31:10;5.53;;;2.17;;
21837;SDS011;11081;45.946;6.140;2023-05-07T06:33:39;5.75;;;2.15;;
21837;SDS011;11081;45.946;6.140;2023-05-07T06:36:09;6.60;;;2.20;;
21837;SDS011;11081;45.946;6.140;2023-05-07T06:38:38;5.15;;;2.35;;
21837;SDS011;11081;45.946;6.140;2023-05-07T06:41:06;6.10;;;2.30;;
21837;SDS011;11081;45.946;6.140;2023-05-07T06:43:36;4.97;;;2.45;;
21837;SDS011;11081;45.946;6.140;2023-05-07T06:46:29;6.15;;;2.22;;
21837;SDS011;11081;45.946;6.140;2023-05-07T06:48:57;3.00;;;1.90;;
21837;SDS011;11081;45.946;6.140;2023-05-07T06:51:28;3.72;;;2.30;;
21837;SDS011;11081;45.946;6.140;2023-05-07T06:54:00;6.97;;;2.22;;
21837;SDS011;11081;45.946;6.140;2023-05-07T06:56:32;7.43;;;2.40;;
21837;SDS011;11081;45.946;6.140;2023-05-07T06:59:02;5.13;;;2.40;;
21837;SDS011;11081;45.946;6.140;2023-05-07T07:01:35;4.30;;;2.30;;
21837;SDS011;11081;45.946;6.140;2023-05-07T07:04:04;4.63;;;2.25;;
21837;SDS011;11081;45.946;6.140;2023-05-07T07:06:34;6.10;;;2.30;;
21837;SDS011;11081;45.946;6.140;2023-05-07T07:09:07;4.20;;;2.17;;
21837;SDS011;11081;45.946;6.140;2023-05-07T07:11:35;6.07;;;2.42;;
21837;SDS011;11081;45.946;6.140;2023-05-07T07:14:04;3.40;;;2.00;;
21837;SDS011;11081;45.946;6.140;2023-05-07T07:16:38;2.92;;;2.10;;
21837;SDS011;11081;45.946;6.140;2023-05-07T07:19:06;3.58;;;2.25;;
21837;SDS011;11081;45.946;6.140;2023-05-07T07:21:36;2.78;;;2.17;;
21837;SDS011;11081;45.946;6.140;2023-05-07T07:24:04;4.43;;;2.17;;
21837;SDS011;11081;45.946;6.140;2023-05-07T07:26:32;5.35;;;2.60;;
21837;SDS011;11081;45.946;6.140;2023-05-07T07:29:00;2.60;;;2.15;;
21837;SDS011;11081;45.946;6.140;2023-05-07T07:31:28;3.53;;;2.75;;
21837;SDS011;11081;45.946;6.140;2023-05-07T07:33:57;4.00;;;2.50;;
21837;SDS011;11081;45.946;6.140;2023-05-07T07:36:26;5.78;;;2.78;;
21837;SDS011;11081;45.946;6.140;2023-05-07T07:39:12;5.18;;;2.40;;
21837;SDS011;11081;45.946;6.140;2023-05-07T07:41:41;5.28;;;2.75;;
21837;SDS011;11081;45.946;6.140;2023-05-07T07:44:10;4.47;;;2.40;;
21837;SDS011;11081;45.946;6.140;2023-05-07T07:46:45;6.03;;;2.15;;
21837;SDS011;11081;45.946;6.140;2023-05-07T07:49:13;4.82;;;2.33;;
21837;SDS011;11081;45.946;6.140;2023-05-07T07:51:43;3.35;;;2.45;;
21837;SDS011;11081;45.946;6.140;2023-05-07T07:54:14;6.63;;;2.70;;
21837;SDS011;11081;45.946;6.140;2023-05-07T07:56:42;4.43;;;2.45;;
21837;SDS011;11081;45.946;6.140;2023-05-07T07:59:12;3.45;;;2.45;;
21837;SDS011;11081;45.946;6.140;2023-05-07T08:01:44;5.75;;;2.58;;
21837;SDS011;11081;45.946;6.140;2023-05-07T08:04:14;3.63;;;2.35;;
21837;SDS011;11081;45.946;6.140;2023-05-07T08:06:43;4.85;;;2.58;;
21837;SDS011;11081;45.946;6.140;2023-05-07T08:09:11;3.80;;;2.40;;
21837;SDS011;11081;45.946;6.140;2023-05-07T08:11:42;4.10;;;2.10;;
21837;SDS011;11081;45.946;6.140;2023-05-07T08:14:10;3.03;;;2.03;;
21837;SDS011;11081;45.946;6.140;2023-05-07T08:16:39;4.90;;;2.08;;
21837;SDS011;11081;45.946;6.140;2023-05-07T08:19:07;7.38;;;2.35;;
21837;SDS011;11081;45.946;6.140;2023-05-07T08:21:38;4.93;;;2.22;;
21837;SDS011;11081;45.946;6.140;2023-05-07T08:24:09;4.18;;;2.05;;
21837;SDS011;11081;45.946;6.140;2023-05-07T08:26:37;21.20;;;3.03;;
21837;SDS011;11081;45.946;6.140;2023-05-07T08:29:08;5.20;;;2.75;;
21837;SDS011;11081;45.946;6.140;2023-05-07T08:31:36;7.68;;;2.50;;
21837;SDS011;11081;45.946;6.140;2023-05-07T08:34:05;8.73;;;2.15;;
21837;SDS011;11081;45.946;6.140;2023-05-07T08:36:37;4.80;;;2.22;;
21837;SDS011;11081;45.946;6.140;2023-05-07T08:39:10;7.40;;;2.45;;
21837;SDS011;11081;45.946;6.140;2023-05-07T08:41:37;6.20;;;2.47;;
21837;SDS011;11081;45.946;6.140;2023-05-07T08:44:07;3.88;;;2.33;;
21837;SDS011;11081;45.946;6.140;2023-05-07T08:46:41;5.55;;;2.25;;
21837;SDS011;11081;45.946;6.140;2023-05-07T08:49:09;2.45;;;2.03;;
21837;SDS011;11081;45.946;6.140;2023-05-07T08:51:38;4.55;;;2.25;;
21837;SDS011;11081;45.946;6.140;2023-05-07T08:54:06;9.10;;;2.25;;
21837;SDS011;11081;45.946;6.140;2023-05-07T08:56:36;8.90;;;2.17;;
21837;SDS011;11081;45.946;6.140;2023-05-07T08:59:07;4.72;;;2.42;;
21837;SDS011;11081;45.946;6.140;2023-05-07T09:01:35;4.93;;;2.00;;
21837;SDS011;11081;45.946;6.140;2023-05-07T09:04:05;3.65;;;1.70;;
21837;SDS011;11081;45.946;6.140;2023-05-07T09:06:34;6.95;;;2.25;;
21837;SDS011;11081;45.946;6.140;2023-05-07T09:09:04;4.05;;;1.92;;
21837;SDS011;11081;45.946;6.140;2023-05-07T09:11:32;4.13;;;1.98;;
21837;SDS011;11081;45.946;6.140;2023-05-07T09:14:01;4.30;;;1.80;;
21837;SDS011;11081;45.946;6.140;2023-05-07T09:16:37;2.50;;;1.63;;
21837;SDS011;11081;45.946;6.140;2023-05-07T09:19:05;2.78;;;2.00;;
21837;SDS011;11081;45.946;6.140;2023-05-07T09:21:34;6.90;;;2.03;;
21837;SDS011;11081;45.946;6.140;2023-05-07T09:24:06;2.58;;;1.85;;
21837;SDS011;11081;45.946;6.140;2023-05-07T09:26:38;4.30;;;2.28;;
21837;SDS011;11081;45.946;6.140;2023-05-07T09:29:08;5.32;;;2.25;;
21837;SDS011;11081;45.946;6.140;2023-05-07T09:31:40;4.95;;;2.20;;
21837;SDS011;11081;45.946;6.140;2023-05-07T09:34:12;2.45;;;1.83;;
21837;SDS011;11081;45.946;6.140;2023-05-07T09:36:43;4.25;;;1.95;;
21837;SDS011;11081;45.946;6.140;2023-05-07T09:39:11;3.65;;;1.58;;
21837;SDS011;11081;45.946;6.140;2023-05-07T09:41:45;4.75;;;2.00;;
21837;SDS011;11081;45.946;6.140;2023-05-07T09:44:21;3.65;;;2.10;;
21837;SDS011;11081;45.946;6.140;2023-05-07T09:46:53;3.17;;;2.00;;
21837;SDS011;11081;45.946;6.140;2023-05-07T09:49:29;2.97;;;1.92;;
21837;SDS011;11081;45.946;6.140;2023-05-07T09:52:04;4.10;;;1.80;;
21837;SDS011;11081;45.946;6.140;2023-05-07T09:54:38;3.20;;;1.95;;
21837;SDS011;11081;45.946;6.140;2023-05-07T09:57:07;4.65;;;1.95;;
21837;SDS011;11081;45.946;6.140;2023-05-07T09:59:37;3.17;;;1.85;;
21837;SDS011;11081;45.946;6.140;2023-05-07T10:02:10;4.13;;;1.90;;
21837;SDS011;11081;45.946;6.140;2023-05-07T10:04:45;3.83;;;2.03;;
21837;SDS011;11081;45.946;6.140;2023-05-07T10:07:17;3.72;;;2.08;;
21837;SDS011;11081;45.946;6.140;2023-05-07T10:09:47;6.35;;;2.20;;
21837;SDS011;11081;45.946;6.140;2023-05-07T10:12:26;4.95;;;2.10;;
21837;SDS011;11081;45.946;6.140;2023-05-07T10:14:55;3.28;;;2.00;;
21837;SDS011;11081;45.946;6.140;2023-05-07T10:17:25;3.13;;;2.08;;
21837;SDS011;11081;45.946;6.140;2023-05-07T10:19:53;3.03;;;1.98;;
21837;SDS011;11081;45.946;6.140;2023-05-07T10:22:22;3.38;;;2.00;;
21837;SDS011;11081;45.946;6.140;2023-05-07T10:24:53;4.47;;;2.13;;
21837;SDS011;11081;45.946;6.140;2023-05-07T10:27:25;6.05;;;2.10;;
21837;SDS011;11081;45.946;6.140;2023-05-07T10:29:57;2.90;;;2.20;;
21837;SDS011;11081;45.946;6.140;2023-05-07T10:32:38;8.13;;;2.38;;
21837;SDS011;11081;45.946;6.140;2023-05-07T10:35:14;2.55;;;1.90;;
21837;SDS011;11081;45.946;6.140;2023-05-07T10:37:47;6.18;;;1.90;;
21837;SDS011;11081;45.946;6.140;2023-05-07T10:40:17;4.00;;;1.65;;
21837;SDS011;11081;45.946;6.140;2023-05-07T10:42:53;3.20;;;2.00;;
21837;SDS011;11081;45.946;6.140;2023-05-07T10:45:23;3.95;;;1.58;;
21837;SDS011;11081;45.946;6.140;2023-05-07T10:48:11;3.03;;;1.33;;
21837;SDS011;11081;45.946;6.140;2023-05-07T10:50:49;1.85;;;0.90;;
21837;SDS011;11081;45.946;6.140;2023-05-07T10:56:55;2.22;;;1.17;;
21837;SDS011;11081;45.946;6.140;2023-05-07T10:59:30;15.02;;;1.60;;
21837;SDS011;11081;45.946;6.140;2023-05-07T11:02:31;2.45;;;1.10;;
21837;SDS011;11081;45.946;6.140;2023-05-07T11:06:10;1.60;;;1.40;;
21837;SDS011;11081;45.946;6.140;2023-05-07T11:09:00;1.63;;;0.90;;
21837;SDS011;11081;45.946;6.140;2023-05-07T11:11:45;3.05;;;1.10;;
21837;SDS011;11081;45.946;6.140;2023-05-07T11:14:43;1.52;;;0.93;;
21837;SDS011;11081;45.946;6.140;2023-05-07T11:17:27;1.70;;;1.10;;
21837;SDS011;11081;45.946;6.140;2023-05-07T11:20:05;1.60;;;0.90;;
21837;SDS011;11081;45.946;6.140;2023-05-07T11:22:54;2.05;;;0.90;;
21837;SDS011;11081;45.946;6.140;2023-05-07T11:25:37;1.13;;;1.00;;
21837;SDS011;11081;45.946;6.140;2023-05-07T11:28:17;3.30;;;1.13;;
21837;SDS011;11081;45.946;6.140;2023-05-07T11:30:54;1.35;;;1.00;;
21837;SDS011;11081;45.946;6.140;2023-05-07T11:33:24;2.95;;;1.30;;
21837;SDS011;11081;45.946;6.140;2023-05-07T11:35:54;1.15;;;1.00;;
21837;SDS011;11081;45.946;6.140;2023-05-07T11:38:34;2.22;;;1.38;;
21837;SDS011;11081;45.946;6.140;2023-05-07T11:41:03;3.85;;;1.27;;
21837;SDS011;11081;45.946;6.140;2023-05-07T11:43:31;1.50;;;1.10;;
21837;SDS011;11081;45.946;6.140;2023-05-07T11:46:05;2.75;;;1.52;;
21837;SDS011;11081;45.946;6.140;2023-05-07T11:48:34;4.70;;;1.45;;
21837;SDS011;11081;45.946;6.140;2023-05-07T11:51:03;1.50;;;1.08;;
21837;SDS011;11081;45.946;6.140;2023-05-07T11:53:38;2.85;;;1.20;;
21837;SDS011;11081;45.946;6.140;2023-05-07T11:56:07;2.08;;;1.50;;
21837;SDS011;11081;45.946;6.140;2023-05-07T11:58:35;7.22;;;1.50;;
21837;SDS011;11081;45.946;6.140;2023-05-07T12:01:04;2.38;;;1.48;;
21837;SDS011;11081;45.946;6.140;2023-05-07T12:03:34;5.53;;;2.20;;
21837;SDS011;11081;45.946;6.140;2023-05-07T12:06:05;3.45;;;2.20;;
21837;SDS011;11081;45.946;6.140;2023-05-07T12:08:35;6.43;;;2.58;;
21837;SDS011;11081;45.946;6.140;2023-05-07T12:11:08;4.20;;;2.85;;
21837;SDS011;11081;45.946;6.140;2023-05-07T12:13:40;4.10;;;2.50;;
21837;SDS011;11081;45.946;6.140;2023-05-07T12:16:09;7.68;;;2.30;;
21837;SDS011;11081;45.946;6.140;2023-05-07T12:18:37;4.70;;;2.30;;
21837;SDS011;11081;45.946;6.140;2023-05-07T12:21:05;4.70;;;2.60;;
21837;SDS011;11081;45.946;6.140;2023-05-07T12:23:35;3.80;;;2.33;;
21837;SDS011;11081;45.946;6.140;2023-05-07T12:26:05;8.32;;;2.60;;
21837;SDS011;11081;45.946;6.140;2023-05-07T12:28:38;3.45;;;2.30;;
21837;SDS011;11081;45.946;6.140;2023-05-07T12:31:06;5.28;;;2.45;;
21837;SDS011;11081;45.946;6.140;2023-05-07T12:33:35;4.28;;;2.42;;
21837;SDS011;11081;45.946;6.140;2023-05-07T12:36:04;2.92;;;2.25;;
21837;SDS011;11081;45.946;6.140;2023-05-07T12:38:35;5.03;;;2.40;;
21837;SDS011;11081;45.946;6.140;2023-05-07T12:41:05;3.63;;;2.40;;
21837;SDS011;11081;45.946;6.140;2023-05-07T12:43:34;4.38;;;2.38;;
21837;SDS011;11081;45.946;6.140;2023-05-07T12:46:03;2.90;;;2.30;;
21837;SDS011;11081;45.946;6.140;2023-05-07T12:48:32;3.67;;;2.22;;
21837;SDS011;11081;45.946;6.140;2023-05-07T12:51:00;3.53;;;2.50;;
21837;SDS011;11081;45.946;6.140;2023-05-07T12:53:29;4.43;;;1.90;;
21837;SDS011;11081;45.946;6.140;2023-05-07T12:55:58;19.42;;;6.97;;
21837;SDS011;11081;45.946;6.140;2023-05-07T12:58:29;13.00;;;4.53;;
21837;SDS011;11081;45.946;6.140;2023-05-07T13:00:58;17.42;;;5.68;;
21837;SDS011;11081;45.946;6.140;2023-05-07T13:03:28;9.25;;;3.67;;
21837;SDS011;11081;45.946;6.140;2023-05-07T13:05:58;18.20;;;6.20;;
21837;SDS011;11081;45.946;6.140;2023-05-07T13:08:28;17.95;;;4.55;;
21837;SDS011;11081;45.946;6.140;2023-05-07T13:10:58;10.20;;;3.40;;
21837;SDS011;11081;45.946;6.140;2023-05-07T13:13:31;6.00;;;2.42;;
21837;SDS011;11081;45.946;6.140;2023-05-07T13:16:00;5.90;;;2.47;;
21837;SDS011;11081;45.946;6.140;2023-05-07T13:18:29;5.30;;;2.38;;
21837;SDS011;11081;45.946;6.140;2023-05-07T13:20:58;4.60;;;2.58;;
21837;SDS011;11081;45.946;6.140;2023-05-07T13:23:26;6.95;;;2.55;;
21837;SDS011;11081;45.946;6.140;2023-05-07T13:25:54;6.45;;;3.28;;
21837;SDS011;11081;45.946;6.140;2023-05-07T13:28:23;4.93;;;3.10;;
21837;SDS011;11081;45.946;6.140;2023-05-07T13:30:53;4.28;;;3.35;;
21837;SDS011;11081;45.946;6.140;2023-05-07T13:33:21;6.60;;;3.10;;
21837;SDS011;11081;45.946;6.140;2023-05-07T13:35:50;8.60;;;3.92;;
21837;SDS011;11081;45.946;6.140;2023-05-07T13:38:18;7.03;;;2.92;;
21837;SDS011;11081;45.946;6.140;2023-05-07T13:40:48;6.18;;;2.63;;
21837;SDS011;11081;45.946;6.140;2023-05-07T13:43:16;3.65;;;2.67;;
21837;SDS011;11081;45.946;6.140;2023-05-07T13:45:45;4.38;;;2.53;;
21837;SDS011;11081;45.946;6.140;2023-05-07T13:48:14;4.40;;;2.63;;
21837;SDS011;11081;45.946;6.140;2023-05-07T13:50:42;5.07;;;2.83;;
21837;SDS011;11081;45.946;6.140;2023-05-07T13:53:10;6.30;;;2.58;;
21837;SDS011;11081;45.946;6.140;2023-05-07T13:55:38;6.78;;;2.97;;
21837;SDS011;11081;45.946;6.140;2023-05-07T13:58:06;5.03;;;2.78;;
21837;SDS011;11081;45.946;6.140;2023-05-07T14:00:34;6.97;;;2.95;;
21837;SDS011;11081;45.946;6.140;2023-05-07T14:03:02;3.92;;;3.25;;
21837;SDS011;11081;45.946;6.140;2023-05-07T14:05:34;6.88;;;2.75;;
21837;SDS011;11081;45.946;6.140;2023-05-07T14:08:02;5.80;;;3.15;;
21837;SDS011;11081;45.946;6.140;2023-05-07T14:10:31;4.93;;;3.08;;
21837;SDS011;11081;45.946;6.140;2023-05-07T14:13:01;7.38;;;3.58;;
21837;SDS011;11081;45.946;6.140;2023-05-07T14:15:29;12.23;;;3.50;;
21837;SDS011;11081;45.946;6.140;2023-05-07T14:17:58;6.38;;;4.20;;
21837;SDS011;11081;45.946;6.140;2023-05-07T14:20:28;3.95;;;3.47;;
21837;SDS011;11081;45.946;6.140;2023-05-07T14:22:58;5.28;;;3.45;;
21837;SDS011;11081;45.946;6.140;2023-05-07T14:25:26;4.60;;;3.30;;
21837;SDS011;11081;45.946;6.140;2023-05-07T14:27:54;5.15;;;3.10;;
21837;SDS011;11081;45.946;6.140;2023-05-07T14:30:22;5.35;;;2.85;;
21837;SDS011;11081;45.946;6.140;2023-05-07T14:32:50;11.43;;;3.83;;
21837;SDS011;11081;45.946;6.140;2023-05-07T14:35:19;6.35;;;2.40;;
21837;SDS011;11081;45.946;6.140;2023-05-07T14:37:46;5.20;;;2.00;;
21837;SDS011;11081;45.946;6.140;2023-05-07T14:40:16;2.33;;;1.38;;
21837;SDS011;11081;45.946;6.140;2023-05-07T14:42:44;2.15;;;1.00;;
21837;SDS011;11081;45.946;6.140;2023-05-07T14:45:12;2.03;;;1.20;;
21837;SDS011;11081;45.946;6.140;2023-05-07T14:47:40;2.08;;;1.40;;
21837;SDS011;11081;45.946;6.140;2023-05-07T14:50:08;1.90;;;1.10;;
21837;SDS011;11081;45.946;6.140;2023-05-07T14:52:37;3.33;;;1.50;;
21837;SDS011;11081;45.946;6.140;2023-05-07T14:55:05;2.75;;;1.50;;
21837;SDS011;11081;45.946;6.140;2023-05-07T14:57:34;3.08;;;1.40;;
21837;SDS011;11081;45.946;6.140;2023-05-07T15:00:03;3.20;;;2.00;;
21837;SDS011;11081;45.946;6.140;2023-05-07T15:02:33;1.88;;;1.30;;
21837;SDS011;11081;45.946;6.140;2023-05-07T15:05:02;4.97;;;2.00;;
21837;SDS011;11081;45.946;6.140;2023-05-07T15:07:30;3.92;;;1.60;;
21837;SDS011;11081;45.946;6.140;2023-05-07T15:09:59;2.67;;;1.25;;
21837;SDS011;11081;45.946;6.140;2023-05-07T15:12:27;6.28;;;1.85;;